createdAt,value
2019-04-20T00:01:01.580Z,52.77
2019-04-20T00:03:39.430Z,54.40
2019-04-20T00:06:12.851Z,54.02
2019-04-20T00:08:45.661Z,53.41
2019-04-20T00:11:27.350Z,53.79
2019-04-20T00:14:04.094Z,54.52
2019-04-20T00:16:40.029Z,54.22
2019-04-20T00:19:10.750Z,54.69
2019-04-20T00:21:56.368Z,53.82
2019-04-20T00:24:33.628Z,55.37
2019-04-20T00:27:28.199Z,55.23
2019-04-20T00:29:49.577Z,53.10
2019-04-20T00:32:17.617Z,52.80
2019-04-20T00:34:43.323Z,52.60
2019-04-20T00:37:12.838Z,52.04
2019-04-20T00:39:44.674Z,52.85
2019-04-20T00:42:17.673Z,52.47
2019-04-20T00:44:56.324Z,51.09
2019-04-20T00:47:34.922Z,51.23
2019-04-20T00:50:05.578Z,50.68
2019-04-20T00:52:32.916Z,51.50
2019-04-20T00:54:58.194Z,52.27
2019-04-20T00:57:38.022Z,51.49
2019-04-20T01:00:19.205Z,50.16
2019-04-20T01:02:46.679Z,53.26
2019-04-20T01:05:22.881Z,52.65
2019-04-20T01:08:00.553Z,52.89
2019-04-20T01:10:35.381Z,53.36
2019-04-20T01:13:11.063Z,56.39
2019-04-20T01:15:46.357Z,55.99
2019-04-20T01:18:07.053Z,57.91
2019-04-20T01:20:38.897Z,60.02
2019-04-20T01:23:15.258Z,63.21
2019-04-20T01:25:45.090Z,66.41
2019-04-20T01:28:35.412Z,65.58
2019-04-20T01:31:00.039Z,64.94
2019-04-20T01:33:31.882Z,65.16
2019-04-20T01:36:10.430Z,64.64
2019-04-20T01:38:40.020Z,65.70
2019-04-20T01:40:57.180Z,69.15
2019-04-20T01:43:29.061Z,70.00
2019-04-20T01:46:07.928Z,70.34
2019-04-20T01:48:35.586Z,70.54
2019-04-20T01:51:11.864Z,70.72
2019-04-20T01:53:55.945Z,70.27
2019-04-20T01:56:27.878Z,69.00
2019-04-20T01:59:06.084Z,66.51
2019-04-20T02:01:30.917Z,67.05
2019-04-20T02:04:17.181Z,67.56
2019-04-20T02:06:50.029Z,67.39
2019-04-20T02:09:20.466Z,67.14
2019-04-20T02:11:50.819Z,67.36
2019-04-20T02:14:31.389Z,67.59
2019-04-20T02:17:03.481Z,69.13
2019-04-20T02:19:37.707Z,71.65
2019-04-20T02:22:11.644Z,70.96
2019-04-20T02:24:30.090Z,69.03
2019-04-20T02:27:02.004Z,67.27
2019-04-20T02:29:54.776Z,67.27
2019-04-20T02:32:32.170Z,67.41
2019-04-20T02:35:07.231Z,67.79
2019-04-20T02:38:02.997Z,67.50
2019-04-20T02:40:35.961Z,67.73
2019-04-20T02:42:57.888Z,70.58
2019-04-20T02:45:40.504Z,70.92
2019-04-20T02:48:07.709Z,68.51
2019-04-20T02:50:37.920Z,67.82
2019-04-20T02:53:13.789Z,68.52
2019-04-20T03:00:33.935Z,72.43
2019-04-20T03:02:55.894Z,71.59
2019-04-20T03:05:28.256Z,71.09
2019-04-20T03:08:08.948Z,71.06
2019-04-20T03:10:46.309Z,68.56
2019-04-20T03:13:15.908Z,66.52
2019-04-20T03:15:48.152Z,64.96
2019-04-20T03:18:22.311Z,62.73
2019-04-20T03:20:53.625Z,60.73
2019-04-20T03:23:31.313Z,61.16
2019-04-20T03:26:09.592Z,58.82
2019-04-20T03:28:54.054Z,55.89
2019-04-20T03:32:25.205Z,56.90
2019-04-20T03:34:47.445Z,55.15
2019-04-20T03:37:04.725Z,53.96
2019-04-20T03:39:23.255Z,53.37
2019-04-20T03:41:43.470Z,54.04
2019-04-20T03:44:15.353Z,55.59
2019-04-20T03:46:51.336Z,59.10
2019-04-20T03:49:43.106Z,58.93
2019-04-20T03:52:23.341Z,57.74
2019-04-20T03:54:57.394Z,58.06
2019-04-20T03:57:45.905Z,59.56
2019-04-20T04:00:26.885Z,59.70
2019-04-20T04:03:12.644Z,59.25
2019-04-20T04:05:40.798Z,59.72
2019-04-20T04:08:08.505Z,50.96
2019-04-20T04:10:47.893Z,49.64
2019-04-20T04:13:14.748Z,49.39
2019-04-20T04:15:52.228Z,47.57
2019-04-20T04:18:28.077Z,47.10
2019-04-20T04:21:01.092Z,46.08
2019-04-20T04:23:40.948Z,45.71
2019-04-20T04:26:16.102Z,45.50
2019-04-20T04:28:46.267Z,45.54
2019-04-20T04:31:24.617Z,45.53
2019-04-20T04:36:21.304Z,46.29
2019-04-20T04:39:05.475Z,45.69
2019-04-20T04:41:31.101Z,44.81
2019-04-20T04:44:06.117Z,45.64
2019-04-20T04:46:16.583Z,43.93
2019-04-20T04:48:49.849Z,44.38
2019-04-20T04:51:24.709Z,44.21
2019-04-20T04:54:01.182Z,44.35
2019-04-20T04:56:26.702Z,44.48
2019-04-20T04:58:56.311Z,42.45
2019-04-20T05:01:30.738Z,43.01
2019-04-20T05:04:22.839Z,42.02
2019-04-20T05:06:49.478Z,42.16
2019-04-20T05:09:10.413Z,40.63
2019-04-20T05:11:38.972Z,40.83
2019-04-20T05:14:16.864Z,40.95
2019-04-20T05:16:58.161Z,40.81
2019-04-20T05:19:37.009Z,40.37
2019-04-20T05:22:27.007Z,40.57
2019-04-20T05:24:43.838Z,39.93
2019-04-20T05:27:43.953Z,40.58
2019-04-20T05:29:50.846Z,40.08
2019-04-20T05:32:32.809Z,39.12
2019-04-20T05:35:14.961Z,37.91
2019-04-20T05:37:48.838Z,36.96
2019-04-20T05:40:22.651Z,37.39
2019-04-20T05:42:54.402Z,36.09
2019-04-20T05:45:22.362Z,34.67
2019-04-20T05:47:52.449Z,35.23
2019-04-20T05:50:33.218Z,34.76
2019-04-20T05:53:09.936Z,35.23
2019-04-20T05:55:35.984Z,32.61
2019-04-20T05:58:14.254Z,33.96
2019-04-20T06:00:47.709Z,33.34
2019-04-20T06:03:15.257Z,32.08
2019-04-20T06:05:59.365Z,32.34
2019-04-20T06:08:32.044Z,32.67
2019-04-20T06:10:56.211Z,31.25
2019-04-20T06:13:22.762Z,31.64
2019-04-20T06:16:07.438Z,32.31
2019-04-20T06:18:49.631Z,32.26
2019-04-20T06:21:41.550Z,34.28
2019-04-20T06:24:10.602Z,32.62
2019-04-20T06:26:49.052Z,32.93
2019-04-20T06:29:11.222Z,32.06
2019-04-20T06:31:47.213Z,32.94
2019-04-20T06:34:30.658Z,30.64
2019-04-20T06:37:06.841Z,31.95
2019-04-20T06:39:48.772Z,30.86
2019-04-20T06:44:35.409Z,30.31
2019-04-20T06:49:56.440Z,30.48
2019-04-20T06:52:27.524Z,30.99
2019-04-20T06:55:08.687Z,27.87
2019-04-20T06:57:55.716Z,28.88
2019-04-20T07:00:22.845Z,28.18
2019-04-20T07:05:22.368Z,30.48
2019-04-20T07:07:54.658Z,29.56
2019-04-20T07:10:44.231Z,30.40
2019-04-20T07:12:56.794Z,29.48
2019-04-20T07:15:29.045Z,27.19
2019-04-20T07:18:13.909Z,27.47
2019-04-20T07:20:54.012Z,29.59
2019-04-20T07:23:25.404Z,28.29
2019-04-20T07:25:47.366Z,30.50
2019-04-20T07:28:27.798Z,29.69
2019-04-20T07:30:52.150Z,28.77
2019-04-20T07:33:28.355Z,27.21
2019-04-20T07:35:56.202Z,27.50
2019-04-20T07:41:02.916Z,25.72
2019-04-20T07:43:30.096Z,28.09
2019-04-20T07:46:10.527Z,27.37
2019-04-20T07:48:36.826Z,28.17
2019-04-20T07:51:02.647Z,27.15
2019-04-20T07:53:36.664Z,27.83
2019-04-20T07:56:17.682Z,26.46
2019-04-20T07:58:43.379Z,26.29
2019-04-20T08:01:54.333Z,27.11
2019-04-20T08:04:24.434Z,25.24
2019-04-20T08:06:46.169Z,26.13
2019-04-20T08:09:24.741Z,26.72
2019-04-20T08:12:11.805Z,27.88
2019-04-20T08:14:42.388Z,27.39
2019-04-20T08:17:30.593Z,26.79
2019-04-20T08:19:41.078Z,27.11
2019-04-20T08:22:21.872Z,26.75
2019-04-20T08:24:42.820Z,27.19
2019-04-20T08:27:09.117Z,27.16
2019-04-20T08:29:53.709Z,26.84
2019-04-20T08:32:46.842Z,26.10
2019-04-20T08:35:25.956Z,24.85
2019-04-20T08:38:22.129Z,25.11
2019-04-20T08:40:31.367Z,28.21
2019-04-20T08:43:10.827Z,26.79
2019-04-20T08:45:45.816Z,27.05
2019-04-20T08:48:14.108Z,26.87
2019-04-20T08:50:41.352Z,27.38
2019-04-20T08:53:20.740Z,25.84
2019-04-20T08:55:41.564Z,26.86
2019-04-20T08:57:59.993Z,28.35
2019-04-20T09:00:38.741Z,27.40
2019-04-20T09:03:15.293Z,26.52
2019-04-20T09:05:48.997Z,27.58
2019-04-20T09:08:16.205Z,26.57
2019-04-20T09:11:00.269Z,24.80
2019-04-20T09:13:24.764Z,25.26
2019-04-20T09:15:47.091Z,24.72
2019-04-20T09:18:41.900Z,26.78
2019-04-20T09:21:15.143Z,27.30
2019-04-20T09:24:11.861Z,28.12
2019-04-20T09:26:37.386Z,25.49
2019-04-20T09:29:05.786Z,25.21
2019-04-20T09:31:40.828Z,23.83
2019-04-20T09:34:16.137Z,26.04
2019-04-20T09:36:49.612Z,27.24
2019-04-20T09:39:21.596Z,24.30
2019-04-20T09:42:00.381Z,25.66
2019-04-20T09:44:25.643Z,24.77
2019-04-20T09:46:56.786Z,25.83
2019-04-20T09:49:39.972Z,26.02
2019-04-20T09:52:15.749Z,24.75
2019-04-20T09:54:48.133Z,26.20
2019-04-20T09:57:22.330Z,24.76
2019-04-20T09:59:53.743Z,26.12
2019-04-20T10:02:15.712Z,24.75
2019-04-20T10:04:39.914Z,26.29
2019-04-20T10:07:17.586Z,25.06
2019-04-20T10:09:47.360Z,24.71
2019-04-20T10:12:19.649Z,24.98
2019-04-20T10:14:50.972Z,25.42
2019-04-20T10:17:21.950Z,24.10
2019-04-20T10:19:53.697Z,24.03
2019-04-20T10:22:24.653Z,25.08
2019-04-20T10:24:57.119Z,24.49
2019-04-20T10:27:28.466Z,24.72
2019-04-20T10:30:03.796Z,23.65
2019-04-20T10:32:38.841Z,24.22
2019-04-20T10:35:04.795Z,24.08
2019-04-20T10:37:37.765Z,24.45
2019-04-20T10:40:08.855Z,24.63
2019-04-20T10:42:39.541Z,24.33
2019-04-20T10:45:10.932Z,23.72
2019-04-20T10:47:43.058Z,25.69
2019-04-20T10:50:14.561Z,25.62
2019-04-20T10:52:45.800Z,24.73
2019-04-20T10:55:16.870Z,24.46
2019-04-20T10:57:47.540Z,26.88
2019-04-20T11:00:21.626Z,25.49
2019-04-20T11:02:52.554Z,24.99
2019-04-20T11:05:24.482Z,24.00
2019-04-20T11:07:56.725Z,24.27
2019-04-20T11:10:34.469Z,25.40
2019-04-20T11:13:01.222Z,25.67
2019-04-20T11:15:32.481Z,23.70
2019-04-20T11:18:03.749Z,24.74
2019-04-20T11:20:35.273Z,23.93
2019-04-20T11:23:06.634Z,23.49
2019-04-20T11:25:38.018Z,27.50
2019-04-20T11:28:10.223Z,26.63
2019-04-20T11:30:41.452Z,25.25
2019-04-20T11:33:12.516Z,24.05
2019-04-20T11:35:45.261Z,24.36
2019-04-20T11:38:17.363Z,25.07
2019-04-20T11:41:00.128Z,23.46
2019-04-20T11:43:21.772Z,25.32
2019-04-20T11:45:52.726Z,23.91
2019-04-20T11:48:23.797Z,24.18
2019-04-20T11:50:55.826Z,25.85
2019-04-20T11:53:27.264Z,25.58
2019-04-20T11:55:59.189Z,25.33
2019-04-20T11:58:31.070Z,24.45
2019-04-20T12:01:11.049Z,24.34
2019-04-20T12:03:50.750Z,22.99
2019-04-20T12:06:12.801Z,23.62
2019-04-20T12:08:45.367Z,24.69
2019-04-20T12:11:26.639Z,24.92
2019-04-20T12:13:49.033Z,23.40
2019-04-20T12:16:21.273Z,23.50
2019-04-20T12:18:52.521Z,23.65
2019-04-20T12:21:24.963Z,26.34
2019-04-20T12:23:58.292Z,25.19
2019-04-20T12:26:29.130Z,25.88
2019-04-20T12:29:01.376Z,23.94
2019-04-20T12:31:33.515Z,24.66
2019-04-20T12:34:04.575Z,24.94
2019-04-20T12:36:35.380Z,23.84
2019-04-20T12:39:09.047Z,26.62
2019-04-20T12:41:45.066Z,24.02
2019-04-20T12:44:12.496Z,24.20
2019-04-20T12:46:43.767Z,22.97
2019-04-20T12:49:15.839Z,24.42
2019-04-20T12:51:53.970Z,26.44
2019-04-20T12:54:18.990Z,25.66
2019-04-20T12:56:50.982Z,23.04
2019-04-20T12:59:21.688Z,23.11
2019-04-20T13:01:53.371Z,23.94
2019-04-20T13:04:24.687Z,22.96
2019-04-20T13:06:57.531Z,23.27
2019-04-20T13:09:34.625Z,22.72
2019-04-20T13:12:10.606Z,22.50
2019-04-20T13:15:08.669Z,22.08
2019-04-20T13:17:40.035Z,23.73
2019-04-20T13:20:12.018Z,24.72
2019-04-20T13:22:44.138Z,24.34
2019-04-20T13:25:15.073Z,23.59
2019-04-20T13:27:47.317Z,23.62
2019-04-20T13:30:19.632Z,24.99
2019-04-20T13:32:51.602Z,23.74
2019-04-20T13:35:22.766Z,24.00
2019-04-20T13:37:54.175Z,23.69
2019-04-20T13:40:26.002Z,22.96
2019-04-20T13:42:56.664Z,22.91
2019-04-20T13:45:28.789Z,24.26
2019-04-20T13:47:59.630Z,23.89
2019-04-20T13:50:31.662Z,22.84
2019-04-20T13:53:03.341Z,22.48
2019-04-20T13:55:35.631Z,23.62
2019-04-20T13:58:13.898Z,23.91
2019-04-20T14:00:54.065Z,24.56
2019-04-20T14:03:27.026Z,25.28
2019-04-20T14:05:58.411Z,24.70
2019-04-20T14:08:29.698Z,26.07
2019-04-20T14:11:01.572Z,25.51
2019-04-20T14:13:42.852Z,25.37
2019-04-20T14:16:11.238Z,23.82
2019-04-20T14:18:42.983Z,23.19
2019-04-20T14:21:14.246Z,24.04
2019-04-20T14:30:50.020Z,26.65
2019-04-20T14:33:21.186Z,23.40
2019-04-20T14:35:52.783Z,22.53
2019-04-20T14:38:24.271Z,21.08
2019-04-20T14:40:55.148Z,20.48
2019-04-20T14:43:26.878Z,21.02
2019-04-20T14:45:58.740Z,19.44
2019-04-20T14:48:30.974Z,20.57
2019-04-20T14:51:01.874Z,21.17
2019-04-20T14:53:33.607Z,21.57
2019-04-20T14:56:05.381Z,23.32
2019-04-20T14:58:42.155Z,23.60
2019-04-20T15:01:34.593Z,21.80
2019-04-20T15:04:11.534Z,21.74
2019-04-20T15:06:39.788Z,22.56
2019-04-20T15:09:10.918Z,23.32
2019-04-20T15:11:44.285Z,24.37
2019-04-20T15:14:14.590Z,24.05
2019-04-20T15:16:46.757Z,25.76
2019-04-20T15:19:19.172Z,22.46
2019-04-20T15:22:03.260Z,23.11
2019-04-20T15:24:35.532Z,22.85
2019-04-20T15:27:06.773Z,23.22
2019-04-20T15:29:38.240Z,24.23
2019-04-20T15:32:10.210Z,21.33
2019-04-20T15:34:41.043Z,22.48
2019-04-20T15:37:12.102Z,23.70
2019-04-20T15:39:43.263Z,24.14
2019-04-20T15:42:15.043Z,24.26
2019-04-20T15:44:46.995Z,26.26
2019-04-20T15:47:17.987Z,26.77
2019-04-20T15:49:49.788Z,25.89
2019-04-20T15:52:27.506Z,26.00
2019-04-20T15:54:53.706Z,28.43
2019-04-20T15:57:27.680Z,26.43
2019-04-20T15:59:58.309Z,26.62
2019-04-20T16:02:41.235Z,27.67
2019-04-20T16:05:14.420Z,29.55
2019-04-20T16:07:52.573Z,29.02
2019-04-20T16:10:19.236Z,29.13
2019-04-20T16:13:04.810Z,31.23
2019-04-20T16:15:27.308Z,28.94
2019-04-20T16:17:58.888Z,31.70
2019-04-20T16:20:43.536Z,31.38
2019-04-20T16:23:02.840Z,31.24
2019-04-20T16:25:53.350Z,32.64
2019-04-20T16:28:25.444Z,32.32
2019-04-20T16:30:59.366Z,32.99
2019-04-20T16:33:30.749Z,32.68
2019-04-20T16:36:04.704Z,33.55
2019-04-20T16:38:35.419Z,34.19
2019-04-20T16:41:06.707Z,35.34
2019-04-20T16:43:42.540Z,36.52
2019-04-20T16:46:10.973Z,37.65
2019-04-20T16:48:42.210Z,40.31
2019-04-20T16:51:13.384Z,41.77
2019-04-20T16:53:45.651Z,42.58
2019-04-20T16:56:19.016Z,42.00
2019-04-20T16:58:54.625Z,42.58
2019-04-20T17:01:23.630Z,43.08
2019-04-20T17:04:06.527Z,44.73
2019-04-20T17:06:27.774Z,45.57
2019-04-20T17:08:58.838Z,43.66
2019-04-20T17:11:30.132Z,44.11
2019-04-20T17:14:02.130Z,41.52
2019-04-20T17:16:33.698Z,41.36
2019-04-20T17:19:05.953Z,41.32
2019-04-20T17:21:37.331Z,41.84
2019-04-20T17:24:09.081Z,41.36
2019-04-20T17:26:47.590Z,42.12
2019-04-20T17:29:23.939Z,42.82
2019-04-20T17:31:59.501Z,43.93
2019-04-20T17:34:58.377Z,44.15
2019-04-20T17:37:15.000Z,44.48
2019-04-20T17:40:06.471Z,42.21
2019-04-20T17:42:33.305Z,43.98
2019-04-20T17:45:00.773Z,45.96
2019-04-20T17:47:43.186Z,46.68
2019-04-20T17:50:16.688Z,47.28
2019-04-20T17:52:49.575Z,48.29
2019-04-20T17:55:03.420Z,50.51
2019-04-20T17:57:35.256Z,55.68
2019-04-20T18:00:13.788Z,56.17
2019-04-20T18:03:04.307Z,56.37
2019-04-20T18:05:57.067Z,56.10
2019-04-20T18:08:31.123Z,56.10
2019-04-20T18:10:53.021Z,54.42
2019-04-20T18:13:20.291Z,53.41
2019-04-20T18:16:05.226Z,52.64
2019-04-20T18:18:39.832Z,52.36
2019-04-20T18:21:01.186Z,53.61
2019-04-20T18:23:36.355Z,50.71
2019-04-20T18:26:27.246Z,49.79
2019-04-20T18:29:03.670Z,51.04
2019-04-20T18:31:21.863Z,52.15
2019-04-20T18:33:54.244Z,50.51
2019-04-20T18:36:32.171Z,51.74
2019-04-20T18:39:02.669Z,53.90
2019-04-20T18:41:38.515Z,54.46
2019-04-20T18:44:02.699Z,56.05
2019-04-20T18:46:57.320Z,57.03
2019-04-20T18:49:18.605Z,56.81
2019-04-20T18:51:39.824Z,57.29
2019-04-20T18:54:16.256Z,56.40
2019-04-20T18:56:47.537Z,56.63
2019-04-20T18:59:16.735Z,55.79
2019-04-20T19:01:48.799Z,57.15
2019-04-20T19:04:19.839Z,62.58
2019-04-20T19:06:52.086Z,63.54
2019-04-20T19:09:28.101Z,62.10
2019-04-20T19:12:00.835Z,60.28
2019-04-20T19:14:49.238Z,59.03
2019-04-20T19:17:45.251Z,59.93
2019-04-20T19:20:29.035Z,61.30
2019-04-20T19:23:00.215Z,61.41
2019-04-20T19:25:35.331Z,61.81
2019-04-20T19:28:05.122Z,61.15
2019-04-20T19:30:46.089Z,60.97
2019-04-20T19:33:22.684Z,61.14
2019-04-20T19:35:52.235Z,60.46
2019-04-20T19:38:20.710Z,59.80
2019-04-20T19:40:56.505Z,59.56
2019-04-20T19:43:25.339Z,60.49
2019-04-20T19:46:29.740Z,61.68
2019-04-20T19:48:39.661Z,62.92
2019-04-20T19:51:21.563Z,62.66
2019-04-20T19:53:48.824Z,62.40
2019-04-20T19:56:16.986Z,63.39
2019-04-20T19:58:52.593Z,63.37
2019-04-20T20:01:09.301Z,62.16
2019-04-20T20:03:41.683Z,62.58
2019-04-20T20:06:23.735Z,62.77
2019-04-20T20:08:53.170Z,61.02
2019-04-20T20:11:26.456Z,63.32
2019-04-20T20:13:53.235Z,64.79
2019-04-20T20:16:32.574Z,65.21
2019-04-20T20:19:07.381Z,64.89
2019-04-20T20:21:46.778Z,64.84
2019-04-20T20:24:01.988Z,65.28
2019-04-20T20:26:38.701Z,64.68
2019-04-20T20:29:17.138Z,68.52
2019-04-20T20:31:56.693Z,67.21
2019-04-20T20:34:22.141Z,66.47
2019-04-20T20:36:57.140Z,65.77
2019-04-20T20:39:30.600Z,68.43
2019-04-20T20:42:14.106Z,69.73
2019-04-20T20:44:41.079Z,70.43
2019-04-20T20:47:31.670Z,68.99
2019-04-20T20:50:03.255Z,65.13
2019-04-20T20:52:27.695Z,65.52
2019-04-20T20:54:55.830Z,65.23
2019-04-20T20:57:24.788Z,65.22
2019-04-20T21:00:00.468Z,65.09
2019-04-20T21:02:40.175Z,65.72
2019-04-20T21:04:59.610Z,66.84
2019-04-20T21:07:30.955Z,68.17
2019-04-20T21:10:01.950Z,68.58
2019-04-20T21:12:37.330Z,66.37
2019-04-20T21:15:13.425Z,67.24
2019-04-20T21:18:05.545Z,66.22
2019-04-20T21:20:27.575Z,66.56
2019-04-20T21:23:02.671Z,69.95
2019-04-20T21:25:19.156Z,71.50
2019-04-20T21:27:50.879Z,72.95
2019-04-20T21:30:30.008Z,72.63
2019-04-20T21:33:00.004Z,71.64
2019-04-20T21:35:31.310Z,70.45
2019-04-20T21:38:06.102Z,70.42
2019-04-20T21:40:36.270Z,71.53
2019-04-20T21:43:07.255Z,71.18
2019-04-20T21:45:38.070Z,70.85
2019-04-20T21:48:23.148Z,70.30
2019-04-20T21:50:58.287Z,69.83
2019-04-20T21:53:18.292Z,70.77
2019-04-20T21:55:46.016Z,71.37
2019-04-20T21:58:18.417Z,71.31
2019-04-20T22:01:07.124Z,70.24
2019-04-20T22:03:27.516Z,70.67
2019-04-20T22:06:04.860Z,70.90
2019-04-20T22:08:39.403Z,70.44
2019-04-20T22:11:09.567Z,69.82
2019-04-20T22:13:43.619Z,70.22
2019-04-20T22:16:14.742Z,72.23
2019-04-20T22:18:53.025Z,72.65
2019-04-20T22:21:25.468Z,73.62
2019-04-20T22:24:03.213Z,73.78
2019-04-20T22:26:32.165Z,73.93
2019-04-20T22:28:56.308Z,73.12
2019-04-20T22:31:27.357Z,72.65
2019-04-20T22:34:00.833Z,70.37
2019-04-20T22:36:36.918Z,69.96
2019-04-20T22:39:09.333Z,69.77
2019-04-20T22:41:46.653Z,72.29
2019-04-20T22:44:20.290Z,73.10
2019-04-20T22:46:47.686Z,73.83
2019-04-20T22:49:35.975Z,74.67
2019-04-20T22:52:00.597Z,75.21
2019-04-20T22:54:39.511Z,75.31
2019-04-20T22:57:05.982Z,75.39
2019-04-20T22:59:39.820Z,75.25
2019-04-20T23:02:03.898Z,75.40
2019-04-20T23:04:34.959Z,74.90
2019-04-20T23:07:05.839Z,74.02
2019-04-20T23:09:43.838Z,73.60
2019-04-20T23:12:15.747Z,73.11
2019-04-20T23:14:42.454Z,73.53
2019-04-20T23:17:18.364Z,74.13
2019-04-20T23:19:52.109Z,73.93
2019-04-20T23:22:19.224Z,73.52
2019-04-20T23:24:51.174Z,73.29
2019-04-20T23:27:26.307Z,73.05
2019-04-20T23:29:55.244Z,72.50
2019-04-20T23:32:29.990Z,73.55
2019-04-20T23:35:05.909Z,73.82
2019-04-20T23:37:33.823Z,74.50
2019-04-20T23:40:06.327Z,74.62
2019-04-20T23:42:44.140Z,74.72
2019-04-20T23:45:17.400Z,77.66
2019-04-20T23:47:57.871Z,78.71
2019-04-20T23:50:41.000Z,79.08
2019-04-20T23:53:14.097Z,79.07
2019-04-20T23:55:31.805Z,78.80
2019-04-20T23:58:06.534Z,78.75
